SMRA60 UAOL 251200
AAXX 25121
62458 32960 03012 10262 20182 40131 57014=



SMUS60 KWBC 251200
AAXX 25124
62306 31558 43114 10247 20176 40181 57009 70700 84500=
62309 32960 03305 10257 20171 40165 57007=
62318 32560 43410 10266 20178 40157 57005 84200=
62325 32560 30103 10252 20173 40158 57010 83200=
62332 32560 23506 10253 20172 40157 57010 82100=
62366 35560 02606 10264 20130 40148 57015 82200=
62387 32960 03409 10273 20154 40142 57017=
62393 32960 03608 10284 20127 40160 57017=
62405 32960 03404 10309 20106 40115 57020=
62414 32960 00208 10323 20086 40101 57023=
62419 32960 00604 10304 20097 40106 57019=
62420 32960 00306 10276 20131 40148 57020=
62423 37395 42799 72404 10108 20058 30140 40281 52008 84530=
62432 32960 03310 10276 20127 40153 57022=
62435 32960 00109 10306 20122 40122 57022=
62440 32560 20605 10272 20102 40149 57018 82200=
62455 32960 03410 10268 20157 40136 57018=
62459 32960 02815 10258 20184 40123 57005=
63210 32580 13608 10299 20230 40112 81100 333 10304 59002 81830=